sensor_id;sensor_type;location;lat;lon;timestamp;temperature;humidity
71117;SHT31;58775;46.992;9.518;2024-03-08T00:04:45;4.42;91.04
71117;SHT31;58775;46.992;9.518;2024-03-08T00:07:01;4.61;89.53
71117;SHT31;58775;46.992;9.518;2024-03-08T00:09:02;4.47;91.16
71117;SHT31;58775;46.992;9.518;2024-03-08T00:11:13;4.50;90.97
71117;SHT31;58775;46.992;9.518;2024-03-08T00:14:06;4.51;90.88
71117;SHT31;58775;46.992;9.518;2024-03-08T00:17:11;4.52;90.63
71117;SHT31;58775;46.992;9.518;2024-03-08T00:19:47;4.85;88.55
71117;SHT31;58775;46.992;9.518;2024-03-08T00:22:00;4.88;88.36
71117;SHT31;58775;46.992;9.518;2024-03-08T00:24:07;4.72;89.43
71117;SHT31;58775;46.992;9.518;2024-03-08T00:26:17;4.64;89.82
71117;SHT31;58775;46.992;9.518;2024-03-08T00:28:18;4.78;88.77
71117;SHT31;58775;46.992;9.518;2024-03-08T00:30:24;4.85;88.42
71117;SHT31;58775;46.992;9.518;2024-03-08T00:32:26;4.89;88.29
71117;SHT31;58775;46.992;9.518;2024-03-08T00:34:28;4.79;88.67
71117;SHT31;58775;46.992;9.518;2024-03-08T00:36:28;4.73;89.10
71117;SHT31;58775;46.992;9.518;2024-03-08T00:38:30;4.60;89.45
71117;SHT31;58775;46.992;9.518;2024-03-08T00:40:32;4.83;88.60
71117;SHT31;58775;46.992;9.518;2024-03-08T00:42:32;5.02;87.92
71117;SHT31;58775;46.992;9.518;2024-03-08T00:44:34;4.99;88.02
71117;SHT31;58775;46.992;9.518;2024-03-08T00:46:34;4.97;87.61
71117;SHT31;58775;46.992;9.518;2024-03-08T00:48:35;4.73;89.93
71117;SHT31;58775;46.992;9.518;2024-03-08T00:50:37;4.89;88.49
71117;SHT31;58775;46.992;9.518;2024-03-08T00:52:37;4.95;87.89
71117;SHT31;58775;46.992;9.518;2024-03-08T00:54:38;5.05;86.99
71117;SHT31;58775;46.992;9.518;2024-03-08T00:56:39;4.88;87.70
71117;SHT31;58775;46.992;9.518;2024-03-08T00:58:40;4.83;88.44
71117;SHT31;58775;46.992;9.518;2024-03-08T01:00:41;4.92;88.09
71117;SHT31;58775;46.992;9.518;2024-03-08T01:02:45;4.76;89.33
71117;SHT31;58775;46.992;9.518;2024-03-08T01:04:49;4.48;89.91
71117;SHT31;58775;46.992;9.518;2024-03-08T01:06:50;4.52;89.67
71117;SHT31;58775;46.992;9.518;2024-03-08T01:08:51;4.44;89.95
71117;SHT31;58775;46.992;9.518;2024-03-08T01:10:53;4.50;90.11
71117;SHT31;58775;46.992;9.518;2024-03-08T01:12:54;4.73;88.78
71117;SHT31;58775;46.992;9.518;2024-03-08T01:14:57;4.97;87.77
71117;SHT31;58775;46.992;9.518;2024-03-08T01:16:58;5.27;86.62
71117;SHT31;58775;46.992;9.518;2024-03-08T01:18:59;5.54;85.24
71117;SHT31;58775;46.992;9.518;2024-03-08T01:21:00;5.65;84.87
71117;SHT31;58775;46.992;9.518;2024-03-08T01:23:01;5.81;84.16
71117;SHT31;58775;46.992;9.518;2024-03-08T01:25:02;5.94;83.68
71117;SHT31;58775;46.992;9.518;2024-03-08T01:27:05;5.94;83.49
71117;SHT31;58775;46.992;9.518;2024-03-08T01:29:06;5.77;84.43
71117;SHT31;58775;46.992;9.518;2024-03-08T01:31:07;5.75;84.56
71117;SHT31;58775;46.992;9.518;2024-03-08T01:33:07;5.47;85.55
71117;SHT31;58775;46.992;9.518;2024-03-08T01:35:09;5.61;84.80
71117;SHT31;58775;46.992;9.518;2024-03-08T01:37:10;5.75;84.33
71117;SHT31;58775;46.992;9.518;2024-03-08T01:39:11;5.84;83.83
71117;SHT31;58775;46.992;9.518;2024-03-08T01:41:12;5.90;83.52
71117;SHT31;58775;46.992;9.518;2024-03-08T01:43:25;6.04;82.72
71117;SHT31;58775;46.992;9.518;2024-03-08T01:45:29;6.04;82.79
71117;SHT31;58775;46.992;9.518;2024-03-08T01:47:31;6.05;83.00
71117;SHT31;58775;46.992;9.518;2024-03-08T01:49:33;6.04;82.53
71117;SHT31;58775;46.992;9.518;2024-03-08T01:51:34;6.08;82.65
71117;SHT31;58775;46.992;9.518;2024-03-08T01:53:35;6.06;82.72
71117;SHT31;58775;46.992;9.518;2024-03-08T01:55:36;6.02;82.74
71117;SHT31;58775;46.992;9.518;2024-03-08T01:57:37;5.98;82.76
71117;SHT31;58775;46.992;9.518;2024-03-08T01:59:38;5.99;82.80
71117;SHT31;58775;46.992;9.518;2024-03-08T02:01:41;6.01;82.64
71117;SHT31;58775;46.992;9.518;2024-03-08T02:03:45;5.94;82.96
71117;SHT31;58775;46.992;9.518;2024-03-08T02:05:49;5.93;82.97
71117;SHT31;58775;46.992;9.518;2024-03-08T02:07:50;5.88;83.29
71117;SHT31;58775;46.992;9.518;2024-03-08T02:09:52;5.87;83.17
71117;SHT31;58775;46.992;9.518;2024-03-08T02:11:53;5.85;83.29
71117;SHT31;58775;46.992;9.518;2024-03-08T02:13:55;5.73;83.65
71117;SHT31;58775;46.992;9.518;2024-03-08T02:16:00;5.75;83.44
71117;SHT31;58775;46.992;9.518;2024-03-08T02:18:03;5.79;83.39
71117;SHT31;58775;46.992;9.518;2024-03-08T02:20:05;5.87;82.88
71117;SHT31;58775;46.992;9.518;2024-03-08T02:22:06;5.84;82.70
71117;SHT31;58775;46.992;9.518;2024-03-08T02:24:07;5.90;82.73
71117;SHT31;58775;46.992;9.518;2024-03-08T02:26:08;5.84;82.86
71117;SHT31;58775;46.992;9.518;2024-03-08T02:28:12;5.85;82.53
71117;SHT31;58775;46.992;9.518;2024-03-08T02:30:13;5.90;82.03
71117;SHT31;58775;46.992;9.518;2024-03-08T02:32:14;6.01;81.57
71117;SHT31;58775;46.992;9.518;2024-03-08T02:34:16;6.09;80.79
71117;SHT31;58775;46.992;9.518;2024-03-08T02:36:16;6.09;80.88
71117;SHT31;58775;46.992;9.518;2024-03-08T02:38:19;6.12;81.05
71117;SHT31;58775;46.992;9.518;2024-03-08T02:40:20;5.93;82.07
71117;SHT31;58775;46.992;9.518;2024-03-08T02:42:22;6.06;81.55
71117;SHT31;58775;46.992;9.518;2024-03-08T02:44:23;6.21;81.22
71117;SHT31;58775;46.992;9.518;2024-03-08T02:46:24;6.35;80.64
71117;SHT31;58775;46.992;9.518;2024-03-08T02:48:25;6.25;81.07
71117;SHT31;58775;46.992;9.518;2024-03-08T02:50:26;6.05;81.64
71117;SHT31;58775;46.992;9.518;2024-03-08T02:52:27;6.05;81.44
71117;SHT31;58775;46.992;9.518;2024-03-08T02:54:28;5.85;82.09
71117;SHT31;58775;46.992;9.518;2024-03-08T02:56:28;5.81;81.91
71117;SHT31;58775;46.992;9.518;2024-03-08T02:58:30;5.70;82.50
71117;SHT31;58775;46.992;9.518;2024-03-08T03:00:31;5.51;82.83
71117;SHT31;58775;46.992;9.518;2024-03-08T03:02:33;5.53;82.76
71117;SHT31;58775;46.992;9.518;2024-03-08T03:04:34;5.58;82.42
71117;SHT31;58775;46.992;9.518;2024-03-08T03:06:35;5.65;81.87
71117;SHT31;58775;46.992;9.518;2024-03-08T03:08:36;5.65;81.86
71117;SHT31;58775;46.992;9.518;2024-03-08T03:10:37;5.63;82.41
71117;SHT31;58775;46.992;9.518;2024-03-08T03:12:37;5.67;82.07
71117;SHT31;58775;46.992;9.518;2024-03-08T03:14:38;5.65;82.30
71117;SHT31;58775;46.992;9.518;2024-03-08T03:16:44;5.68;82.46
71117;SHT31;58775;46.992;9.518;2024-03-08T03:18:46;5.79;81.91
71117;SHT31;58775;46.992;9.518;2024-03-08T03:20:47;5.87;81.57
71117;SHT31;58775;46.992;9.518;2024-03-08T03:22:51;5.99;80.93
71117;SHT31;58775;46.992;9.518;2024-03-08T03:24:55;6.04;80.78
71117;SHT31;58775;46.992;9.518;2024-03-08T03:27:00;6.11;80.61
71117;SHT31;58775;46.992;9.518;2024-03-08T03:29:11;6.25;80.02
71117;SHT31;58775;46.992;9.518;2024-03-08T03:31:12;6.22;79.77
71117;SHT31;58775;46.992;9.518;2024-03-08T03:33:20;6.29;79.41
71117;SHT31;58775;46.992;9.518;2024-03-08T03:35:28;6.33;78.15
71117;SHT31;58775;46.992;9.518;2024-03-08T03:37:34;6.40;78.04
71117;SHT31;58775;46.992;9.518;2024-03-08T03:39:41;6.47;77.31
71117;SHT31;58775;46.992;9.518;2024-03-08T03:41:53;6.57;76.40
71117;SHT31;58775;46.992;9.518;2024-03-08T03:43:54;6.67;76.97
71117;SHT31;58775;46.992;9.518;2024-03-08T03:46:07;6.72;77.76
71117;SHT31;58775;46.992;9.518;2024-03-08T03:48:08;6.56;78.51
71117;SHT31;58775;46.992;9.518;2024-03-08T03:50:09;6.59;76.92
71117;SHT31;58775;46.992;9.518;2024-03-08T03:52:11;6.66;77.00
71117;SHT31;58775;46.992;9.518;2024-03-08T03:54:11;6.75;76.76
71117;SHT31;58775;46.992;9.518;2024-03-08T03:56:13;6.81;76.88
71117;SHT31;58775;46.992;9.518;2024-03-08T03:58:19;6.73;76.76
71117;SHT31;58775;46.992;9.518;2024-03-08T04:00:23;6.77;75.57
71117;SHT31;58775;46.992;9.518;2024-03-08T04:02:24;6.90;75.39
71117;SHT31;58775;46.992;9.518;2024-03-08T04:04:28;6.83;76.13
71117;SHT31;58775;46.992;9.518;2024-03-08T04:06:29;6.83;75.98
71117;SHT31;58775;46.992;9.518;2024-03-08T04:08:34;6.77;77.38
71117;SHT31;58775;46.992;9.518;2024-03-08T04:10:34;6.72;77.12
71117;SHT31;58775;46.992;9.518;2024-03-08T04:12:35;6.60;77.88
71117;SHT31;58775;46.992;9.518;2024-03-08T04:14:38;6.60;77.69
71117;SHT31;58775;46.992;9.518;2024-03-08T04:16:40;6.45;77.81
71117;SHT31;58775;46.992;9.518;2024-03-08T04:18:41;6.36;78.05
71117;SHT31;58775;46.992;9.518;2024-03-08T04:20:47;6.29;78.28
71117;SHT31;58775;46.992;9.518;2024-03-08T04:22:48;6.08;79.10
71117;SHT31;58775;46.992;9.518;2024-03-08T04:24:54;5.97;79.64
71117;SHT31;58775;46.992;9.518;2024-03-08T04:26:58;5.88;79.47
71117;SHT31;58775;46.992;9.518;2024-03-08T04:28:59;5.67;80.26
71117;SHT31;58775;46.992;9.518;2024-03-08T04:31:00;5.71;80.25
71117;SHT31;58775;46.992;9.518;2024-03-08T04:33:04;5.64;80.53
71117;SHT31;58775;46.992;9.518;2024-03-08T04:35:05;5.57;81.10
71117;SHT31;58775;46.992;9.518;2024-03-08T04:37:05;5.61;81.00
71117;SHT31;58775;46.992;9.518;2024-03-08T04:39:06;5.78;80.06
71117;SHT31;58775;46.992;9.518;2024-03-08T04:41:22;5.90;79.64
71117;SHT31;58775;46.992;9.518;2024-03-08T04:43:24;6.06;78.80
71117;SHT31;58775;46.992;9.518;2024-03-08T04:45:27;6.16;78.49
71117;SHT31;58775;46.992;9.518;2024-03-08T04:47:30;6.16;78.67
71117;SHT31;58775;46.992;9.518;2024-03-08T04:49:32;6.26;77.95
71117;SHT31;58775;46.992;9.518;2024-03-08T04:51:35;6.28;78.09
71117;SHT31;58775;46.992;9.518;2024-03-08T04:53:35;6.30;78.39
71117;SHT31;58775;46.992;9.518;2024-03-08T04:55:36;6.24;78.70
71117;SHT31;58775;46.992;9.518;2024-03-08T04:57:38;6.06;79.47
71117;SHT31;58775;46.992;9.518;2024-03-08T04:59:39;6.04;79.46
71117;SHT31;58775;46.992;9.518;2024-03-08T05:01:55;5.93;79.50
71117;SHT31;58775;46.992;9.518;2024-03-08T05:08:16;5.83;79.99
71117;SHT31;58775;46.992;9.518;2024-03-08T05:11:23;5.83;80.07
71117;SHT31;58775;46.992;9.518;2024-03-08T05:29:24;6.02;78.82
71117;SHT31;58775;46.992;9.518;2024-03-08T05:31:58;5.94;79.70
71117;SHT31;58775;46.992;9.518;2024-03-08T05:34:35;5.75;79.21
71117;SHT31;58775;46.992;9.518;2024-03-08T05:36:44;5.67;78.92
71117;SHT31;58775;46.992;9.518;2024-03-08T05:38:59;5.64;80.12
71117;SHT31;58775;46.992;9.518;2024-03-08T05:41:10;5.74;79.94
71117;SHT31;58775;46.992;9.518;2024-03-08T05:43:24;5.84;79.09
71117;SHT31;58775;46.992;9.518;2024-03-08T05:49:41;5.58;80.50
71117;SHT31;58775;46.992;9.518;2024-03-08T05:55:17;5.77;80.04
71117;SHT31;58775;46.992;9.518;2024-03-08T05:57:50;5.68;80.17
71117;SHT31;58775;46.992;9.518;2024-03-08T05:59:51;5.61;80.63
71117;SHT31;58775;46.992;9.518;2024-03-08T06:01:52;5.63;80.64
71117;SHT31;58775;46.992;9.518;2024-03-08T06:03:56;5.73;80.02
71117;SHT31;58775;46.992;9.518;2024-03-08T06:05:57;5.81;79.82
71117;SHT31;58775;46.992;9.518;2024-03-08T06:07:58;5.77;80.41
71117;SHT31;58775;46.992;9.518;2024-03-08T06:09:59;5.85;79.43
71117;SHT31;58775;46.992;9.518;2024-03-08T06:12:00;5.97;78.64
71117;SHT31;58775;46.992;9.518;2024-03-08T06:14:02;5.98;78.86
71117;SHT31;58775;46.992;9.518;2024-03-08T06:16:03;5.93;78.84
71117;SHT31;58775;46.992;9.518;2024-03-08T06:18:06;6.06;78.09
71117;SHT31;58775;46.992;9.518;2024-03-08T06:20:12;6.14;78.48
71117;SHT31;58775;46.992;9.518;2024-03-08T06:22:13;6.15;77.94
71117;SHT31;58775;46.992;9.518;2024-03-08T06:24:14;6.11;78.55
71117;SHT31;58775;46.992;9.518;2024-03-08T06:26:15;6.18;77.99
71117;SHT31;58775;46.992;9.518;2024-03-08T06:28:17;6.25;77.60
71117;SHT31;58775;46.992;9.518;2024-03-08T06:30:20;6.19;78.13
71117;SHT31;58775;46.992;9.518;2024-03-08T06:32:22;6.04;78.89
71117;SHT31;58775;46.992;9.518;2024-03-08T06:34:23;6.15;78.62
71117;SHT31;58775;46.992;9.518;2024-03-08T06:36:24;6.16;78.52
71117;SHT31;58775;46.992;9.518;2024-03-08T06:38:25;6.19;78.34
71117;SHT31;58775;46.992;9.518;2024-03-08T06:40:26;6.28;77.84
71117;SHT31;58775;46.992;9.518;2024-03-08T06:42:27;6.30;78.28
71117;SHT31;58775;46.992;9.518;2024-03-08T06:44:37;6.36;77.88
71117;SHT31;58775;46.992;9.518;2024-03-08T06:46:38;6.43;77.71
71117;SHT31;58775;46.992;9.518;2024-03-08T06:49:00;6.73;75.90
71117;SHT31;58775;46.992;9.518;2024-03-08T06:51:26;7.03;75.10
71117;SHT31;58775;46.992;9.518;2024-03-08T06:53:30;7.29;74.33
71117;SHT31;58775;46.992;9.518;2024-03-08T06:55:31;7.42;74.39
71117;SHT31;58775;46.992;9.518;2024-03-08T07:06:10;7.78;73.09
71117;SHT31;58775;46.992;9.518;2024-03-08T07:08:11;7.82;73.28
71117;SHT31;58775;46.992;9.518;2024-03-08T07:10:16;7.72;74.19
71117;SHT31;58775;46.992;9.518;2024-03-08T07:12:17;7.59;74.82
71117;SHT31;58775;46.992;9.518;2024-03-08T07:19:52;8.20;72.20
71117;SHT31;58775;46.992;9.518;2024-03-08T07:21:54;8.29;71.86
71117;SHT31;58775;46.992;9.518;2024-03-08T07:24:05;8.60;70.66
71117;SHT31;58775;46.992;9.518;2024-03-08T07:26:33;8.79;69.23
71117;SHT31;58775;46.992;9.518;2024-03-08T07:28:39;8.98;69.47
71117;SHT31;58775;46.992;9.518;2024-03-08T07:30:40;9.18;67.71
71117;SHT31;58775;46.992;9.518;2024-03-08T07:32:43;9.25;67.43
71117;SHT31;58775;46.992;9.518;2024-03-08T07:34:49;9.29;67.63
71117;SHT31;58775;46.992;9.518;2024-03-08T07:36:54;9.48;66.58
71117;SHT31;58775;46.992;9.518;2024-03-08T07:39:23;9.64;66.21
71117;SHT31;58775;46.992;9.518;2024-03-08T07:47:46;10.38;63.67
71117;SHT31;58775;46.992;9.518;2024-03-08T07:49:48;10.42;63.25
71117;SHT31;58775;46.992;9.518;2024-03-08T07:51:55;10.45;64.32
71117;SHT31;58775;46.992;9.518;2024-03-08T07:53:59;10.36;63.97
71117;SHT31;58775;46.992;9.518;2024-03-08T07:56:12;10.42;62.87
71117;SHT31;58775;46.992;9.518;2024-03-08T07:58:17;10.45;62.57
71117;SHT31;58775;46.992;9.518;2024-03-08T08:00:32;10.63;59.68
71117;SHT31;58775;46.992;9.518;2024-03-08T08:02:36;10.59;62.22
71117;SHT31;58775;46.992;9.518;2024-03-08T08:04:46;10.72;60.64
71117;SHT31;58775;46.992;9.518;2024-03-08T08:06:50;10.80;61.41
71117;SHT31;58775;46.992;9.518;2024-03-08T08:09:07;10.92;62.48
71117;SHT31;58775;46.992;9.518;2024-03-08T08:11:58;11.21;60.62
71117;SHT31;58775;46.992;9.518;2024-03-08T08:16:59;11.28;61.10
71117;SHT31;58775;46.992;9.518;2024-03-08T08:19:15;11.37;59.97
71117;SHT31;58775;46.992;9.518;2024-03-08T08:21:38;11.55;59.75
71117;SHT31;58775;46.992;9.518;2024-03-08T08:23:39;11.61;60.35
71117;SHT31;58775;46.992;9.518;2024-03-08T08:25:40;11.64;59.66
71117;SHT31;58775;46.992;9.518;2024-03-08T08:27:47;11.59;59.80
71117;SHT31;58775;46.992;9.518;2024-03-08T08:29:53;11.67;60.41
71117;SHT31;58775;46.992;9.518;2024-03-08T08:31:59;11.83;60.91
71117;SHT31;58775;46.992;9.518;2024-03-08T08:34:00;12.02;60.02
71117;SHT31;58775;46.992;9.518;2024-03-08T08:36:01;11.96;59.41
71117;SHT31;58775;46.992;9.518;2024-03-08T08:38:07;12.09;60.05
71117;SHT31;58775;46.992;9.518;2024-03-08T08:40:45;12.18;58.16
71117;SHT31;58775;46.992;9.518;2024-03-08T08:46:39;12.06;56.63
71117;SHT31;58775;46.992;9.518;2024-03-08T08:51:39;12.61;58.00
71117;SHT31;58775;46.992;9.518;2024-03-08T08:54:04;12.81;55.77
71117;SHT31;58775;46.992;9.518;2024-03-08T08:56:12;12.88;56.70
71117;SHT31;58775;46.992;9.518;2024-03-08T08:58:28;12.81;56.35
71117;SHT31;58775;46.992;9.518;2024-03-08T09:00:59;13.10;54.93
71117;SHT31;58775;46.992;9.518;2024-03-08T09:03:22;13.24;55.07
71117;SHT31;58775;46.992;9.518;2024-03-08T09:05:24;13.14;54.93
71117;SHT31;58775;46.992;9.518;2024-03-08T09:07:37;13.52;53.98
71117;SHT31;58775;46.992;9.518;2024-03-08T09:09:59;13.05;55.00
71117;SHT31;58775;46.992;9.518;2024-03-08T09:12:45;13.65;53.95
71117;SHT31;58775;46.992;9.518;2024-03-08T09:15:15;14.03;53.96
71117;SHT31;58775;46.992;9.518;2024-03-08T09:17:22;14.14;53.77
71117;SHT31;58775;46.992;9.518;2024-03-08T09:19:26;14.33;53.08
71117;SHT31;58775;46.992;9.518;2024-03-08T09:21:33;14.47;51.75
71117;SHT31;58775;46.992;9.518;2024-03-08T09:23:57;14.20;52.21
71117;SHT31;58775;46.992;9.518;2024-03-08T09:26:27;14.41;53.18
71117;SHT31;58775;46.992;9.518;2024-03-08T09:32:12;15.66;50.24
71117;SHT31;58775;46.992;9.518;2024-03-08T09:34:15;15.74;47.33
71117;SHT31;58775;46.992;9.518;2024-03-08T09:36:16;14.96;47.34
71117;SHT31;58775;46.992;9.518;2024-03-08T09:38:18;15.50;47.01
71117;SHT31;58775;46.992;9.518;2024-03-08T09:40:42;15.93;47.25
71117;SHT31;58775;46.992;9.518;2024-03-08T09:42:55;16.07;46.78
71117;SHT31;58775;46.992;9.518;2024-03-08T09:44:56;16.41;45.98
71117;SHT31;58775;46.992;9.518;2024-03-08T09:46:58;16.60;44.93
71117;SHT31;58775;46.992;9.518;2024-03-08T09:49:08;16.94;45.84
71117;SHT31;58775;46.992;9.518;2024-03-08T09:51:13;17.38;43.74
71117;SHT31;58775;46.992;9.518;2024-03-08T09:53:15;17.70;44.65
71117;SHT31;58775;46.992;9.518;2024-03-08T09:55:20;17.65;41.97
71117;SHT31;58775;46.992;9.518;2024-03-08T09:57:22;17.61;42.33
71117;SHT31;58775;46.992;9.518;2024-03-08T09:59:25;18.09;42.92
71117;SHT31;58775;46.992;9.518;2024-03-08T10:01:43;17.74;41.86
71117;SHT31;58775;46.992;9.518;2024-03-08T10:03:46;17.40;43.21
71117;SHT31;58775;46.992;9.518;2024-03-08T10:05:50;17.77;42.24
71117;SHT31;58775;46.992;9.518;2024-03-08T10:07:50;18.01;42.60
71117;SHT31;58775;46.992;9.518;2024-03-08T10:09:52;18.22;41.78
71117;SHT31;58775;46.992;9.518;2024-03-08T10:11:59;18.05;42.00
71117;SHT31;58775;46.992;9.518;2024-03-08T10:14:00;17.99;41.68
71117;SHT31;58775;46.992;9.518;2024-03-08T10:16:01;17.98;42.33
71117;SHT31;58775;46.992;9.518;2024-03-08T10:18:03;17.75;42.30
71117;SHT31;58775;46.992;9.518;2024-03-08T10:20:14;17.88;42.48
71117;SHT31;58775;46.992;9.518;2024-03-08T10:22:15;18.29;42.39
71117;SHT31;58775;46.992;9.518;2024-03-08T10:24:17;18.60;43.30
71117;SHT31;58775;46.992;9.518;2024-03-08T10:26:18;18.47;40.97
71117;SHT31;58775;46.992;9.518;2024-03-08T10:28:22;18.21;41.65
71117;SHT31;58775;46.992;9.518;2024-03-08T10:30:25;18.02;41.49
71117;SHT31;58775;46.992;9.518;2024-03-08T10:32:26;18.01;41.31
71117;SHT31;58775;46.992;9.518;2024-03-08T10:34:26;17.88;44.32
71117;SHT31;58775;46.992;9.518;2024-03-08T10:36:28;18.61;43.07
71117;SHT31;58775;46.992;9.518;2024-03-08T10:38:31;18.63;41.94
71117;SHT31;58775;46.992;9.518;2024-03-08T10:40:38;18.67;42.41
71117;SHT31;58775;46.992;9.518;2024-03-08T10:42:45;18.57;42.21
71117;SHT31;58775;46.992;9.518;2024-03-08T10:44:54;18.70;43.09
71117;SHT31;58775;46.992;9.518;2024-03-08T10:49:19;18.43;40.93
71117;SHT31;58775;46.992;9.518;2024-03-08T10:51:41;18.75;42.36
71117;SHT31;58775;46.992;9.518;2024-03-08T10:53:45;18.22;42.55
71117;SHT31;58775;46.992;9.518;2024-03-08T10:55:47;18.28;41.44
71117;SHT31;58775;46.992;9.518;2024-03-08T10:57:49;18.26;42.03
71117;SHT31;58775;46.992;9.518;2024-03-08T10:59:51;17.82;42.69
71117;SHT31;58775;46.992;9.518;2024-03-08T11:01:53;18.10;43.46
71117;SHT31;58775;46.992;9.518;2024-03-08T11:03:54;18.19;43.81
71117;SHT31;58775;46.992;9.518;2024-03-08T11:05:56;18.50;42.90
71117;SHT31;58775;46.992;9.518;2024-03-08T11:07:57;18.74;42.23
71117;SHT31;58775;46.992;9.518;2024-03-08T11:09:59;18.47;41.92
71117;SHT31;58775;46.992;9.518;2024-03-08T11:12:22;18.25;40.60
71117;SHT31;58775;46.992;9.518;2024-03-08T11:14:46;18.17;40.76
71117;SHT31;58775;46.992;9.518;2024-03-08T11:16:49;17.95;42.06
71117;SHT31;58775;46.992;9.518;2024-03-08T11:18:53;18.21;41.41
71117;SHT31;58775;46.992;9.518;2024-03-08T11:20:55;17.78;40.41
71117;SHT31;58775;46.992;9.518;2024-03-08T11:23:00;17.62;41.02
71117;SHT31;58775;46.992;9.518;2024-03-08T11:25:05;17.57;41.36
71117;SHT31;58775;46.992;9.518;2024-03-08T11:27:10;17.38;41.85
71117;SHT31;58775;46.992;9.518;2024-03-08T11:31:28;17.58;41.82
71117;SHT31;58775;46.992;9.518;2024-03-08T11:33:30;17.62;40.90
71117;SHT31;58775;46.992;9.518;2024-03-08T11:35:31;17.44;41.73
71117;SHT31;58775;46.992;9.518;2024-03-08T11:37:34;17.03;42.50
71117;SHT31;58775;46.992;9.518;2024-03-08T11:39:36;17.31;42.34
71117;SHT31;58775;46.992;9.518;2024-03-08T11:41:38;17.14;41.50
71117;SHT31;58775;46.992;9.518;2024-03-08T11:43:41;17.17;42.06
71117;SHT31;58775;46.992;9.518;2024-03-08T11:45:45;17.38;42.44
71117;SHT31;58775;46.992;9.518;2024-03-08T11:47:45;17.50;41.51
71117;SHT31;58775;46.992;9.518;2024-03-08T11:49:49;17.40;41.28
71117;SHT31;58775;46.992;9.518;2024-03-08T11:51:52;17.16;41.32
71117;SHT31;58775;46.992;9.518;2024-03-08T11:53:54;17.34;42.24
71117;SHT31;58775;46.992;9.518;2024-03-08T11:55:55;17.27;41.88
71117;SHT31;58775;46.992;9.518;2024-03-08T11:58:05;17.02;41.82
71117;SHT31;58775;46.992;9.518;2024-03-08T12:00:17;17.30;41.32
71117;SHT31;58775;46.992;9.518;2024-03-08T12:02:26;17.31;41.11
71117;SHT31;58775;46.992;9.518;2024-03-08T12:04:28;17.27;40.91
71117;SHT31;58775;46.992;9.518;2024-03-08T12:06:37;17.23;42.73
71117;SHT31;58775;46.992;9.518;2024-03-08T12:08:39;17.28;41.77
71117;SHT31;58775;46.992;9.518;2024-03-08T12:10:40;17.32;41.39
71117;SHT31;58775;46.992;9.518;2024-03-08T12:12:46;17.47;41.50
71117;SHT31;58775;46.992;9.518;2024-03-08T12:14:48;17.48;41.21
71117;SHT31;58775;46.992;9.518;2024-03-08T12:16:51;17.65;41.54
71117;SHT31;58775;46.992;9.518;2024-03-08T12:18:52;17.52;41.43
71117;SHT31;58775;46.992;9.518;2024-03-08T12:23:13;17.99;41.74
71117;SHT31;58775;46.992;9.518;2024-03-08T12:25:16;18.26;40.48
71117;SHT31;58775;46.992;9.518;2024-03-08T12:27:20;17.71;40.22
71117;SHT31;58775;46.992;9.518;2024-03-08T12:29:24;17.96;40.99
71117;SHT31;58775;46.992;9.518;2024-03-08T12:31:25;18.21;40.05
71117;SHT31;58775;46.992;9.518;2024-03-08T12:33:26;18.30;39.46
71117;SHT31;58775;46.992;9.518;2024-03-08T12:35:29;18.03;39.68
71117;SHT31;58775;46.992;9.518;2024-03-08T12:37:31;17.67;41.16
71117;SHT31;58775;46.992;9.518;2024-03-08T12:39:32;17.83;39.89
71117;SHT31;58775;46.992;9.518;2024-03-08T12:41:39;18.43;40.29
71117;SHT31;58775;46.992;9.518;2024-03-08T12:43:41;18.26;39.99
71117;SHT31;58775;46.992;9.518;2024-03-08T12:45:45;18.33;40.00
71117;SHT31;58775;46.992;9.518;2024-03-08T12:47:53;18.22;38.58
71117;SHT31;58775;46.992;9.518;2024-03-08T12:49:54;17.75;38.85
71117;SHT31;58775;46.992;9.518;2024-03-08T12:51:55;17.91;39.15
71117;SHT31;58775;46.992;9.518;2024-03-08T12:53:55;17.91;39.30
71117;SHT31;58775;46.992;9.518;2024-03-08T12:55:56;17.70;39.42
71117;SHT31;58775;46.992;9.518;2024-03-08T12:57:57;17.57;38.94
71117;SHT31;58775;46.992;9.518;2024-03-08T13:00:00;17.51;39.46
71117;SHT31;58775;46.992;9.518;2024-03-08T13:02:03;17.51;39.66
71117;SHT31;58775;46.992;9.518;2024-03-08T13:04:06;17.55;39.33
71117;SHT31;58775;46.992;9.518;2024-03-08T13:06:09;17.27;39.86
71117;SHT31;58775;46.992;9.518;2024-03-08T13:08:10;17.58;39.93
71117;SHT31;58775;46.992;9.518;2024-03-08T13:10:14;17.52;38.52
71117;SHT31;58775;46.992;9.518;2024-03-08T13:12:15;17.78;39.39
71117;SHT31;58775;46.992;9.518;2024-03-08T13:14:16;18.06;40.46
71117;SHT31;58775;46.992;9.518;2024-03-08T13:16:17;18.16;39.43
71117;SHT31;58775;46.992;9.518;2024-03-08T13:18:19;18.25;39.56
71117;SHT31;58775;46.992;9.518;2024-03-08T13:20:20;18.43;39.32
71117;SHT31;58775;46.992;9.518;2024-03-08T13:22:23;18.44;37.12
71117;SHT31;58775;46.992;9.518;2024-03-08T13:24:25;18.36;38.51
71117;SHT31;58775;46.992;9.518;2024-03-08T13:26:26;18.26;38.38
71117;SHT31;58775;46.992;9.518;2024-03-08T13:28:33;17.70;39.63
71117;SHT31;58775;46.992;9.518;2024-03-08T13:30:40;17.06;39.78
71117;SHT31;58775;46.992;9.518;2024-03-08T13:32:42;16.59;41.25
71117;SHT31;58775;46.992;9.518;2024-03-08T13:34:46;15.96;41.09
71117;SHT31;58775;46.992;9.518;2024-03-08T13:36:51;15.67;41.72
71117;SHT31;58775;46.992;9.518;2024-03-08T13:38:52;15.36;41.98
71117;SHT31;58775;46.992;9.518;2024-03-08T13:40:54;15.09;43.82
71117;SHT31;58775;46.992;9.518;2024-03-08T13:42:57;14.95;43.11
71117;SHT31;58775;46.992;9.518;2024-03-08T13:45:01;14.84;43.59
71117;SHT31;58775;46.992;9.518;2024-03-08T13:47:02;14.71;43.29
71117;SHT31;58775;46.992;9.518;2024-03-08T13:49:08;14.61;43.07
71117;SHT31;58775;46.992;9.518;2024-03-08T13:51:10;14.67;43.88
71117;SHT31;58775;46.992;9.518;2024-03-08T13:53:12;14.51;43.19
71117;SHT31;58775;46.992;9.518;2024-03-08T13:55:13;14.45;43.42
71117;SHT31;58775;46.992;9.518;2024-03-08T13:57:15;14.41;43.01
71117;SHT31;58775;46.992;9.518;2024-03-08T13:59:16;14.35;44.47
71117;SHT31;58775;46.992;9.518;2024-03-08T14:01:17;14.23;42.87
71117;SHT31;58775;46.992;9.518;2024-03-08T14:10:20;14.02;43.79
71117;SHT31;58775;46.992;9.518;2024-03-08T14:12:23;13.90;43.60
71117;SHT31;58775;46.992;9.518;2024-03-08T14:14:27;13.93;43.55
71117;SHT31;58775;46.992;9.518;2024-03-08T14:16:27;13.97;43.26
71117;SHT31;58775;46.992;9.518;2024-03-08T14:18:28;13.91;44.36
71117;SHT31;58775;46.992;9.518;2024-03-08T14:20:30;13.89;43.36
71117;SHT31;58775;46.992;9.518;2024-03-08T14:22:31;13.72;43.37
71117;SHT31;58775;46.992;9.518;2024-03-08T14:24:32;13.79;43.18
71117;SHT31;58775;46.992;9.518;2024-03-08T14:26:35;13.70;44.16
71117;SHT31;58775;46.992;9.518;2024-03-08T14:28:39;13.80;43.75
71117;SHT31;58775;46.992;9.518;2024-03-08T14:30:40;13.73;43.16
71117;SHT31;58775;46.992;9.518;2024-03-08T14:32:42;13.69;43.82
71117;SHT31;58775;46.992;9.518;2024-03-08T14:34:44;13.67;43.53
71117;SHT31;58775;46.992;9.518;2024-03-08T14:36:47;13.66;44.06
71117;SHT31;58775;46.992;9.518;2024-03-08T14:38:48;13.66;43.99